Time;durP1;ratioP1;P1;durP2;ratioP2;P2;SDS_P1;SDS_P2;PMS_P1;PMS_P2;Temp;Humidity;BMP_temperature;BMP_pressure;BME280_temperature;BME280_humidity;BME280_pressure;Samples;Min_cycle;Max_cycle;Signal;HPM_P1;HPM_P2
2022/11/18 00:03:09;;;;;;;8.77;4.10;;;;;;;9.31;100.00;98628.91;8372423;28;20188;-52
2022/11/18 00:07:10;;;;;;;8.98;3.05;;;;;;;9.34;100.00;98629.38;8373406;28;20037;-51
2022/11/18 00:14:17;;;;;;;7.20;3.58;;;;;;;9.35;100.00;98635.59;8374023;28;20082;-54
2022/11/18 00:15:34;;;;;;;8.82;3.20;;;;;;;9.35;100.00;98635.59;8374247;28;20447;-53
2022/11/18 00:19:37;;;;;;;9.35;3.78;;;;;;;9.35;100.00;98641.84;8365074;28;20037;-55
2022/11/18 00:23:38;;;;;;;14.52;3.78;;;;;;;9.44;100.00;98635.38;8356664;28;20506;-54
2022/11/18 00:27:39;;;;;;;12.15;3.08;;;;;;;9.51;100.00;98638.19;8359362;28;20036;-53
2022/11/18 00:31:40;;;;;;;7.65;3.42;;;;;;;9.58;100.00;98641.88;8372840;28;20036;-54
2022/11/18 00:35:40;;;;;;;9.50;4.28;;;;;;;9.60;100.00;98639.81;8372606;28;20413;-52
2022/11/18 00:39:44;;;;;;;7.93;3.90;;;;;;;9.61;100.00;98630.72;8372301;28;20071;-53
2022/11/18 00:43:45;;;;;;;11.00;4.37;;;;;;;9.64;100.00;98641.97;8371942;28;20162;-55
2022/11/18 00:47:46;;;;;;;7.22;3.60;;;;;;;9.66;100.00;98636.38;8388376;28;20040;-51
2022/11/18 00:51:46;;;;;;;6.00;3.45;;;;;;;9.65;100.00;98640.13;8370670;28;20037;-51
2022/11/18 00:55:48;;;;;;;10.10;4.30;;;;;;;9.66;100.00;98637.25;8394845;28;20584;-55
2022/11/18 00:59:48;;;;;;;7.68;3.95;;;;;;;9.64;100.00;98654.63;8370528;28;20580;-55
2022/11/18 01:03:49;;;;;;;11.38;4.18;;;;;;;9.61;100.00;98658.50;8349900;28;20469;-52
2022/11/18 01:07:50;;;;;;;5.22;3.45;;;;;;;9.62;100.00;98664.75;8371343;28;20040;-54
2022/11/18 01:13:24;;;;;;;7.13;3.35;;;;;;;9.62;100.00;98675.53;8393435;28;20047;-51
2022/11/18 01:16:18;;;;;;;13.98;3.72;;;;;;;9.64;100.00;98679.72;8342748;28;20068;-50
2022/11/18 01:20:18;;;;;;;8.75;3.42;;;;;;;9.63;100.00;98671.81;8353376;28;20060;-52
2022/11/18 01:24:19;;;;;;;8.70;3.22;;;;;;;9.62;100.00;98675.53;8354557;28;20040;-53
2022/11/18 01:28:19;;;;;;;8.15;3.47;;;;;;;9.64;100.00;98678.91;8354794;28;20044;-53
2022/11/18 01:32:20;;;;;;;11.18;3.97;;;;;;;9.66;100.00;98676.84;8354171;28;20037;-54
2022/11/18 01:36:24;;;;;;;10.27;3.72;;;;;;;9.69;100.00;98684.59;8358691;28;20045;-51
2022/11/18 01:40:26;;;;;;;7.82;3.47;;;;;;;9.71;100.00;98690.66;8356568;28;20148;-55
2022/11/18 01:49:15;;;;;;;7.65;3.25;;;;;;;9.75;100.00;98702.75;8408153;27;20399;-51
2022/11/18 01:53:22;;;;;;;8.70;3.25;;;;;;;9.72;100.00;98708.50;8399198;27;20047;-51
2022/11/18 01:57:26;;;;;;;11.77;3.63;;;;;;;9.68;100.00;98697.25;8399129;27;20071;-54
2022/11/18 02:01:27;;;;;;;8.60;3.22;;;;;;;9.60;100.00;98697.31;8399527;27;20532;-56
2022/11/18 02:05:28;;;;;;;11.65;3.92;;;;;;;9.62;100.00;98707.91;8398061;27;20162;-55
2022/11/18 02:09:29;;;;;;;10.80;3.33;;;;;;;9.59;100.00;98708.28;8397685;27;20137;-52
2022/11/18 02:13:31;;;;;;;8.63;3.53;;;;;;;9.61;100.00;98717.84;8413241;27;20037;-54
2022/11/18 02:22:24;;;;;;;5.90;2.97;;;;;;;9.68;100.00;98734.19;8355725;27;20908;-51
2022/11/18 02:26:53;;;;;;;11.00;3.33;;;;;;;9.71;100.00;98728.44;8347999;28;20049;-51
2022/11/18 02:31:01;;;;;;;7.80;3.13;;;;;;;9.73;100.00;98737.19;8349168;28;20043;-51
2022/11/18 02:35:27;;;;;;;9.27;3.10;;;;;;;9.65;100.00;98746.19;8348483;28;20072;-54
2022/11/18 02:39:38;;;;;;;7.03;3.25;;;;;;;9.61;100.00;98744.84;8348745;28;20041;-52
2022/11/18 02:43:46;;;;;;;6.60;2.50;;;;;;;9.65;100.00;98748.03;8349033;28;20092;-52
2022/11/18 02:47:49;;;;;;;6.97;3.10;;;;;;;9.67;100.00;98756.78;8347506;28;20056;-53
2022/11/18 02:51:51;;;;;;;7.15;2.67;;;;;;;9.66;100.00;98757.78;8346620;28;20411;-54
2022/11/18 02:55:53;;;;;;;4.35;2.60;;;;;;;9.60;100.00;98763.91;8328318;28;20034;-51
2022/11/18 02:59:53;;;;;;;10.57;3.75;;;;;;;9.55;100.00;98761.72;8339096;28;20087;-53
2022/11/18 03:03:55;;;;;;;10.05;3.70;;;;;;;9.52;100.00;98754.00;8348311;28;20044;-51
2022/11/18 03:08:05;;;;;;;8.35;3.13;;;;;;;9.49;100.00;98762.44;8347751;28;20049;-51
2022/11/18 03:12:17;;;;;;;14.68;3.20;;;;;;;9.52;100.00;98767.47;8347820;28;20604;-54
2022/11/18 03:16:25;;;;;;;10.00;3.60;;;;;;;9.49;100.00;98767.81;8328801;28;20594;-49
2022/11/18 03:20:30;;;;;;;5.88;2.83;;;;;;;9.50;100.00;98768.69;8344848;28;20124;-51
2022/11/18 03:24:33;;;;;;;8.77;3.10;;;;;;;9.50;100.00;98779.47;8345355;28;20190;-49
2022/11/18 03:28:45;;;;;;;12.30;3.85;;;;;;;9.46;100.00;98778.16;8353010;28;20067;-50
2022/11/18 03:33:11;;;;;;;13.02;3.30;;;;;;;9.45;100.00;98787.22;8313192;28;20520;-53
2022/11/18 03:37:14;;;;;;;10.00;3.20;;;;;;;9.46;100.00;98791.63;8326667;28;20049;-52
2022/11/18 03:41:18;;;;;;;9.55;3.10;;;;;;;9.49;100.00;98802.06;8329707;28;20042;-51
2022/11/18 03:45:24;;;;;;;7.97;3.20;;;;;;;9.47;100.00;98801.41;8328935;28;20470;-50
2022/11/18 03:49:30;;;;;;;10.18;3.63;;;;;;;9.48;100.00;98808.47;8328330;28;20460;-53
2022/11/18 03:53:35;;;;;;;8.75;3.40;;;;;;;9.48;100.00;98824.63;8329747;28;20045;-50
2022/11/18 03:57:46;;;;;;;;;;;;;;;9.50;100.00;98822.63;8329201;28;20120;-50
2022/11/18 04:01:54;;;;;;;13.35;3.55;;;;;;;9.43;100.00;98835.13;8360343;28;20333;-52
2022/11/18 04:06:08;;;;;;;9.18;3.80;;;;;;;9.42;100.00;98838.81;8328555;28;20047;-50
2022/11/18 04:10:16;;;;;;;11.27;3.97;;;;;;;9.39;100.00;98836.47;8327369;28;20383;-50
2022/11/18 04:14:19;;;;;;;13.02;4.00;;;;;;;9.45;100.00;98846.56;8327043;28;20506;-50
2022/11/18 04:18:19;;;;;;;9.25;3.83;;;;;;;9.49;100.00;98847.91;8328088;28;20057;-51
2022/11/18 04:22:20;;;;;;;11.18;3.92;;;;;;;9.49;100.00;98845.22;8328084;28;20503;-51
2022/11/18 04:26:21;;;;;;;4.53;2.97;;;;;;;9.64;100.00;98856.97;8325310;28;20515;-50
2022/11/18 04:30:22;;;;;;;10.52;3.05;;;;;;;9.69;100.00;98865.34;8327260;28;20474;-51
2022/11/18 04:34:22;;;;;;;5.90;3.00;;;;;;;9.67;100.00;98862.00;8327774;28;20694;-51
2022/11/18 04:38:23;;;;;;;8.75;2.88;;;;;;;9.65;100.00;98874.81;8326932;28;20039;-52
2022/11/18 04:42:23;;;;;;;4.82;2.90;;;;;;;9.61;100.00;98873.50;8326365;28;20042;-48
2022/11/18 04:46:24;;;;;;;17.40;3.63;;;;;;;9.58;100.00;98879.25;8326201;28;20376;-49
2022/11/18 04:50:25;;;;;;;9.07;3.90;;;;;;;9.50;100.00;98892.75;8327462;28;20045;-49
2022/11/18 04:54:26;;;;;;;10.48;3.92;;;;;;;9.39;100.00;98899.34;8327170;28;20498;-49
2022/11/18 04:58:27;;;;;;;7.55;3.65;;;;;;;9.38;100.00;98894.97;8324013;28;20091;-49
2022/11/18 05:02:28;;;;;;;7.53;3.80;;;;;;;9.36;100.00;98897.00;8325100;28;20119;-53
2022/11/18 05:06:28;;;;;;;12.00;4.50;;;;;;;9.35;100.00;98894.47;8321118;28;20570;-49
2022/11/18 05:10:29;;;;;;;17.17;4.60;;;;;;;9.30;100.00;98896.88;8312946;28;20041;-49
2022/11/18 05:14:30;;;;;;;10.70;4.20;;;;;;;9.31;100.00;98898.53;8301860;28;20034;-51
2022/11/18 05:18:31;;;;;;;11.07;4.30;;;;;;;9.35;100.00;98905.25;8314865;28;20128;-51
2022/11/18 05:22:31;;;;;;;13.70;4.22;;;;;;;9.38;100.00;98911.16;8319794;28;20056;-50
2022/11/18 05:26:32;;;;;;;9.65;4.25;;;;;;;9.35;100.00;98916.91;8321715;28;20049;-50
2022/11/18 05:30:33;;;;;;;10.68;4.60;;;;;;;9.19;100.00;98913.38;8320161;28;20045;-52
2022/11/18 05:34:34;;;;;;;7.68;4.00;;;;;;;9.19;100.00;98916.94;8299373;28;20038;-50
2022/11/18 05:38:35;;;;;;;11.70;4.13;;;;;;;9.20;100.00;98915.06;8288270;28;20129;-51
2022/11/18 05:43:36;;;;;;;7.55;4.20;;;;;;;9.25;100.00;98926.19;8289574;28;20065;-49
2022/11/18 05:46:56;;;;;;;10.02;4.38;;;;;;;9.20;100.00;98932.09;8306298;28;20041;-51
2022/11/18 05:50:57;;;;;;;12.98;4.38;;;;;;;9.20;100.00;98933.94;8320349;28;20037;-50
2022/11/18 05:54:58;;;;;;;8.00;3.60;;;;;;;9.07;100.00;98928.22;8321377;28;20086;-53
2022/11/18 05:58:58;;;;;;;10.90;4.20;;;;;;;8.97;100.00;98932.97;8320484;28;20517;-54
2022/11/18 06:03:00;;;;;;;8.80;3.95;;;;;;;8.88;100.00;98939.38;8318541;28;20069;-51
2022/11/18 06:07:23;;;;;;;9.75;4.00;;;;;;;8.84;100.00;98943.41;8302771;28;20325;-49
2022/11/18 06:11:23;;;;;;;8.82;4.75;;;;;;;8.94;100.00;98944.91;8306089;28;20037;-50
2022/11/18 06:15:29;;;;;;;12.50;5.05;;;;;;;8.97;100.00;98955.34;8316907;28;20045;-51
2022/11/18 06:19:31;;;;;;;12.20;4.05;;;;;;;9.00;100.00;98964.97;8318416;28;20064;-50
2022/11/18 06:23:34;;;;;;;14.57;4.70;;;;;;;8.97;100.00;98971.50;8311263;28;20051;-50
2022/11/18 06:27:35;;;;;;;9.80;4.50;;;;;;;9.07;100.00;98982.13;8315201;28;20041;-49
2022/11/18 06:31:35;;;;;;;7.43;4.18;;;;;;;9.03;100.00;98989.72;8323331;28;20036;-50
2022/11/18 06:35:36;;;;;;;11.07;3.75;;;;;;;8.99;100.00;98991.06;8315408;28;20040;-50
2022/11/18 06:39:37;;;;;;;6.95;4.85;;;;;;;9.01;100.00;98996.28;8299188;28;20418;-52
2022/11/18 06:43:37;;;;;;;10.90;4.70;;;;;;;8.85;100.00;99001.66;8285415;28;20038;-50
2022/11/18 06:47:38;;;;;;;12.65;5.55;;;;;;;8.86;100.00;99011.44;8302218;28;20441;-53
2022/11/18 06:51:39;;;;;;;10.38;4.38;;;;;;;8.87;100.00;99013.09;8308558;28;20072;-50
2022/11/18 06:55:39;;;;;;;7.70;3.65;;;;;;;8.98;100.00;99020.88;8311078;28;20037;-50
2022/11/18 06:59:40;;;;;;;9.57;4.68;;;;;;;9.00;100.00;99025.06;8296484;28;20046;-50
2022/11/18 07:03:42;;;;;;;12.80;4.70;;;;;;;9.04;100.00;99029.16;8302829;28;20383;-53
2022/11/18 07:07:42;;;;;;;7.55;4.20;;;;;;;9.08;100.00;99037.72;8317595;28;20087;-50
2022/11/18 07:11:43;;;;;;;8.68;4.43;;;;;;;9.05;100.00;99035.34;8319437;28;20029;-53
2022/11/18 07:15:44;;;;;;;32.67;18.73;;;;;;;9.05;100.00;99046.16;8321314;28;20033;-53
2022/11/18 07:19:45;;;;;;;16.77;7.43;;;;;;;9.00;100.00;99046.63;8324664;28;20490;-53
2022/11/18 07:23:46;;;;;;;10.57;5.85;;;;;;;8.96;100.00;99055.22;8308789;28;20053;-53
2022/11/18 07:27:47;;;;;;;13.95;8.00;;;;;;;8.80;100.00;99060.59;8318226;28;20030;-50
2022/11/18 07:31:47;;;;;;;13.70;7.40;;;;;;;8.90;100.00;99066.66;8320847;28;20037;-52
2022/11/18 07:35:48;;;;;;;13.80;6.22;;;;;;;8.94;100.00;99074.25;8316460;28;20060;-51
2022/11/18 07:39:49;;;;;;;12.32;7.72;;;;;;;9.05;100.00;99075.78;8318052;28;20045;-51
2022/11/18 07:43:50;;;;;;;10.35;5.95;;;;;;;9.14;100.00;99085.56;8325134;28;20068;-54
2022/11/18 07:47:51;;;;;;;8.82;4.18;;;;;;;9.30;100.00;99096.41;8320208;28;20041;-53
2022/11/18 07:51:52;;;;;;;8.38;5.10;;;;;;;9.52;100.00;99095.75;8319468;28;20052;-53
2022/11/18 07:55:53;;;;;;;10.32;4.20;;;;;;;9.53;100.00;99110.91;8310607;28;20036;-54
2022/11/18 07:59:53;;;;;;;8.25;4.00;;;;;;;9.65;100.00;99101.47;8320462;28;20060;-51
2022/11/18 08:03:54;;;;;;;4.78;3.63;;;;;;;9.44;100.00;99104.66;8315072;28;20038;-52
2022/11/18 08:07:56;;;;;;;5.65;3.75;;;;;;;9.54;100.00;99110.72;8313234;28;20046;-51
2022/11/18 08:11:56;;;;;;;10.90;3.78;;;;;;;9.31;100.00;99114.25;8324797;28;20042;-50
2022/11/18 08:15:57;;;;;;;8.30;4.40;;;;;;;9.14;100.00;99117.94;8322753;28;20038;-51
2022/11/18 08:19:58;;;;;;;11.95;4.47;;;;;;;9.38;100.00;99126.06;8304310;28;20527;-54
2022/11/18 08:23:58;;;;;;;7.78;5.05;;;;;;;9.68;100.00;99128.09;8318976;28;20566;-50
2022/11/18 08:27:59;;;;;;;10.90;4.65;;;;;;;9.96;100.00;99132.13;8311049;28;20044;-52
2022/11/18 08:32:00;;;;;;;5.70;4.18;;;;;;;10.45;100.00;99136.44;8319612;28;20483;-51
2022/11/18 08:36:11;;;;;;;10.60;4.63;;;;;;;10.94;100.00;99140.63;8323776;28;20129;-50
2022/11/18 08:40:12;;;;;;;10.25;4.20;;;;;;;10.99;100.00;99138.25;8322538;28;20033;-50
2022/11/18 08:44:15;;;;;;;7.60;4.60;;;;;;;11.36;100.00;99141.09;8321148;28;20048;-50
2022/11/18 08:48:15;;;;;;;9.45;3.78;;;;;;;12.75;100.00;99145.91;8314565;28;20407;-54
2022/11/18 08:52:16;;;;;;;8.57;2.85;;;;;;;14.26;89.22;99155.56;8296755;28;20084;-50
2022/11/18 08:56:19;;;;;;;4.63;1.92;;;;;;;15.60;81.49;99163.00;8304146;28;20041;-53
2022/11/18 09:00:19;;;;;;;4.80;2.22;;;;;;;15.84;78.34;99160.72;8300617;28;20064;-52
2022/11/18 09:04:20;;;;;;;5.82;2.33;;;;;;;15.40;77.86;99186.59;8303927;28;20037;-54
2022/11/18 09:08:25;;;;;;;6.72;2.03;;;;;;;14.70;82.60;99183.25;8316183;28;20025;-50
2022/11/18 09:12:25;;;;;;;3.42;1.98;;;;;;;14.83;82.61;99175.22;8313114;28;20399;-52
2022/11/18 09:16:29;;;;;;;5.53;1.63;;;;;;;15.52;80.70;99187.69;8315432;28;20132;-50
2022/11/18 09:20:29;;;;;;;4.10;1.40;;;;;;;16.08;76.64;99176.50;8317459;28;20041;-50
2022/11/18 09:24:31;;;;;;;6.32;1.80;;;;;;;16.58;74.49;99173.16;8316825;28;20148;-52
2022/11/18 09:28:32;;;;;;;3.85;1.65;;;;;;;17.46;72.76;99178.84;8329689;28;20128;-52
2022/11/18 09:32:33;;;;;;;5.13;2.42;;;;;;;17.97;70.86;99185.09;8321255;28;20045;-51
2022/11/18 09:36:34;;;;;;;6.60;1.45;;;;;;;18.98;67.02;99187.41;8320706;28;20038;-54
2022/11/18 09:40:44;;;;;;;7.55;2.40;;;;;;;19.23;65.85;99190.91;8298929;28;20030;-50
2022/11/18 09:49:28;;;;;;;8.30;1.83;;;;;;;19.71;63.12;99198.34;8405317;27;20407;-52
2022/11/18 09:53:29;;;;;;;5.03;1.17;;;;;;;19.84;61.63;99215.47;8398169;28;20048;-53
2022/11/18 09:57:38;;;;;;;6.97;1.00;;;;;;;19.62;61.27;99222.53;8391498;28;20116;-53
2022/11/18 10:01:38;;;;;;;4.07;1.02;;;;;;;19.84;60.75;99225.59;8425730;27;20048;-53
2022/11/18 10:05:52;;;;;;;4.70;1.40;;;;;;;19.64;61.29;99231.34;8369331;27;20086;-50
2022/11/18 10:09:55;;;;;;;5.27;0.97;;;;;;;20.12;59.54;99234.06;8385987;27;20118;-52
2022/11/18 10:14:24;;;;;;;5.13;0.95;;;;;;;19.80;59.76;99235.38;8390459;28;20290;-50
2022/11/18 10:18:38;;;;;;;4.53;0.80;;;;;;;20.07;59.65;99243.00;8385325;28;20033;-53
2022/11/18 10:22:49;;;;;;;5.73;0.90;;;;;;;20.23;59.59;99230.56;8364380;28;20036;-53
2022/11/18 10:26:55;;;;;;;5.18;1.15;;;;;;;20.34;58.64;99238.84;8386635;27;20036;-52
2022/11/18 10:31:06;;;;;;;4.75;0.90;;;;;;;19.89;58.80;99236.72;8412975;27;20037;-53
2022/11/18 10:35:23;;;;;;;4.78;0.80;;;;;;;20.12;58.84;99234.06;8389408;27;20118;-50
2022/11/18 10:39:24;;;;;;;4.20;0.80;;;;;;;20.80;58.00;99241.69;8387146;27;20036;-52
2022/11/18 10:43:47;;;;;;;3.85;0.80;;;;;;;20.41;57.44;99244.25;8397221;28;20043;-51
2022/11/18 10:48:05;;;;;;;6.50;1.20;;;;;;;19.39;59.90;99255.25;8378450;28;20523;-53
2022/11/18 10:52:10;;;;;;;5.20;1.20;;;;;;;20.02;59.28;99256.59;8399790;28;20103;-50
2022/11/18 10:56:12;;;;;;;9.00;2.33;;;;;;;17.89;63.60;99250.97;8409801;28;20567;-51
2022/11/18 11:00:35;;;;;;;7.50;1.90;;;;;;;15.53;71.46;99259.38;8391842;28;20043;-51
2022/11/18 11:04:37;;;;;;;11.07;2.65;;;;;;;14.81;76.18;99261.63;8385811;28;20037;-52
2022/11/18 11:08:46;;;;;;;11.27;2.03;;;;;;;15.44;75.82;99264.13;8389979;28;20037;-52
2022/11/18 11:13:00;;;;;;;5.28;1.30;;;;;;;17.60;67.34;99263.28;8391157;28;20072;-51
2022/11/18 11:17:11;;;;;;;5.00;1.40;;;;;;;18.94;62.25;99262.84;8390419;28;20032;-50
2022/11/18 11:21:15;;;;;;;4.13;0.88;;;;;;;17.43;64.79;99263.97;8383149;28;20118;-53
2022/11/18 11:25:25;;;;;;;7.15;1.08;;;;;;;16.58;68.20;99271.41;8384526;28;20040;-52
2022/11/18 11:29:37;;;;;;;2.55;0.80;;;;;;;16.05;70.44;99275.06;8386672;28;20101;-51
2022/11/18 11:34:17;;;;;;;7.35;1.08;;;;;;;15.82;70.85;99274.59;8383298;28;20048;-52
2022/11/18 11:38:47;;;;;;;7.43;1.25;;;;;;;15.96;70.42;99277.16;8378500;28;20516;-53
2022/11/18 11:43:15;;;;;;;5.20;0.95;;;;;;;16.92;68.91;99272.03;8380046;28;20060;-53
2022/11/18 11:48:04;;;;;;;5.43;0.88;;;;;;;16.50;69.83;99282.53;8372139;28;20081;-53
2022/11/18 11:52:01;;;;;;;9.70;1.08;;;;;;;15.64;74.16;99275.97;8390168;28;20036;-53
2022/11/18 11:56:20;;;;;;;7.70;1.20;;;;;;;15.70;74.55;99286.06;8389724;28;20024;-50
2022/11/18 12:00:21;;;;;;;7.30;1.17;;;;;;;15.92;73.90;99288.66;8374955;28;20502;-52
2022/11/18 12:05:01;;;;;;;6.82;1.42;;;;;;;17.79;67.92;99283.41;8372348;28;20425;-50
2022/11/18 12:09:12;;;;;;;4.53;1.02;;;;;;;19.49;62.26;99272.03;8380894;28;20041;-53
2022/11/18 12:13:30;;;;;;;4.07;0.63;;;;;;;19.67;61.66;99279.44;8389647;28;20239;-53
2022/11/18 12:17:42;;;;;;;4.85;0.80;;;;;;;18.29;64.05;99279.75;8377576;28;20045;-50
2022/11/18 12:21:49;;;;;;;9.80;2.47;;;;;;;17.56;64.90;99280.31;8391729;28;20071;-50
2022/11/18 12:26:00;;;;;;;10.25;2.42;;;;;;;16.33;69.46;99283.94;8376520;28;20040;-53
2022/11/18 12:30:02;;;;;;;8.43;2.65;;;;;;;15.39;73.63;99288.44;8389207;28;20041;-50
2022/11/18 12:34:16;;;;;;;5.60;1.42;;;;;;;15.06;74.71;99298.22;8383644;28;20043;-51
2022/11/18 12:38:33;;;;;;;3.30;1.13;;;;;;;14.70;76.15;99293.97;8388218;28;20040;-53
2022/11/18 12:43:47;;;;;;;7.32;1.20;;;;;;;14.47;77.20;99294.19;8393698;28;20505;-52
2022/11/18 12:47:07;;;;;;;12.07;1.67;;;;;;;14.20;78.15;99307.69;8360312;28;20037;-53
2022/11/18 12:55:31;;;;;;;10.23;1.80;;;;;;;13.84;80.18;99311.25;8411890;27;20858;-50
2022/11/18 12:59:35;;;;;;;9.95;1.80;;;;;;;13.73;79.81;99311.72;8385854;28;20067;-49
2022/11/18 13:03:36;;;;;;;7.40;2.00;;;;;;;13.71;81.45;99315.69;8372383;28;20041;-50
2022/11/18 13:08:12;;;;;;;9.93;1.25;;;;;;;13.64;80.92;99315.59;8376213;28;20048;-51
2022/11/18 13:12:17;;;;;;;6.30;1.25;;;;;;;13.66;81.63;99320.81;8380935;28;20041;-49
2022/11/18 13:17:56;;;;;;;6.93;1.45;;;;;;;13.61;81.37;99312.44;8380043;28;20048;-52
2022/11/18 13:20:56;;;;;;;9.23;2.13;;;;;;;13.53;82.42;99320.66;8377805;28;20065;-50
2022/11/18 13:24:57;;;;;;;11.95;2.55;;;;;;;13.57;83.33;99316.53;8378446;28;20059;-49
2022/11/18 13:29:25;;;;;;;11.13;2.35;;;;;;;13.59;83.13;99318.03;8377397;28;20040;-49
2022/11/18 13:33:26;;;;;;;12.77;3.33;;;;;;;13.50;82.18;99315.59;8374789;28;20517;-50
2022/11/18 13:37:30;;;;;;;8.80;2.45;;;;;;;13.42;82.42;99323.88;8375057;28;20089;-52
2022/11/18 13:41:33;;;;;;;9.45;2.30;;;;;;;13.31;83.00;99327.91;8367548;28;20543;-49
2022/11/18 13:45:34;;;;;;;11.18;2.65;;;;;;;13.25;83.59;99333.22;8354230;28;20043;-50
2022/11/18 13:49:45;;;;;;;12.18;3.17;;;;;;;13.18;83.64;99335.00;8378244;28;20032;-50
2022/11/18 13:53:46;;;;;;;9.25;1.55;;;;;;;13.15;84.96;99332.66;8377129;28;20106;-50
2022/11/18 13:57:49;;;;;;;8.05;1.23;;;;;;;13.11;85.25;99332.16;8373748;28;20053;-50
2022/11/18 14:01:54;;;;;;;9.57;1.52;;;;;;;13.13;84.80;99334.69;8377447;28;20560;-51
2022/11/18 14:05:56;;;;;;;6.75;1.60;;;;;;;13.11;85.14;99336.75;8359178;28;20044;-53
2022/11/18 14:10:00;;;;;;;8.48;1.30;;;;;;;13.03;84.39;99334.13;8350863;28;20329;-49
2022/11/18 14:14:01;;;;;;;;;;;;;;;12.95;85.95;99343.16;8354149;28;20052;-51
2022/11/18 14:18:02;;;;;;;3.78;1.08;;;;;;;12.86;86.99;99344.25;8353669;28;19917;-53
2022/11/18 14:22:05;;;;;;;9.65;1.48;;;;;;;12.79;87.60;99342.47;8352136;28;20119;-50
2022/11/18 14:26:06;;;;;;;8.07;1.88;;;;;;;12.74;87.74;99356.56;8350234;28;20139;-50
2022/11/18 14:30:32;;;;;;;6.78;1.23;;;;;;;12.64;89.29;99357.84;8355102;28;20048;-50
2022/11/18 14:34:33;;;;;;;7.03;1.30;;;;;;;12.69;88.85;99360.88;8355734;28;20128;-49
2022/11/18 14:42:46;;;;;;;6.90;1.25;;;;;;;12.55;89.72;99361.66;8337820;27;20405;-50
2022/11/18 14:46:57;;;;;;;4.55;1.35;;;;;;;12.53;90.34;99353.69;8328792;28;20044;-52
2022/11/18 14:50:58;;;;;;;5.90;1.50;;;;;;;12.51;91.01;99360.34;8336283;28;20048;-53
2022/11/18 14:54:59;;;;;;;8.57;1.48;;;;;;;12.52;90.88;99356.59;8329815;28;20574;-49
2022/11/18 14:58:59;;;;;;;8.07;1.70;;;;;;;12.59;89.73;99363.00;8346485;28;20426;-50
2022/11/18 15:03:00;;;;;;;9.98;1.55;;;;;;;12.59;89.16;99368.41;8337564;28;20048;-51
2022/11/18 15:07:01;;;;;;;8.85;1.65;;;;;;;12.59;89.14;99368.41;8332556;28;20033;-50
2022/11/18 15:11:01;;;;;;;6.13;1.30;;;;;;;12.56;88.91;99371.50;8331594;28;20055;-50
2022/11/18 15:15:02;;;;;;;5.13;1.20;;;;;;;12.47;90.03;99376.09;8329845;28;20045;-50
2022/11/18 15:19:05;;;;;;;5.50;1.45;;;;;;;12.46;89.50;99385.28;8323886;28;20094;-49
2022/11/18 15:23:05;;;;;;;6.75;1.42;;;;;;;12.46;89.19;99389.84;8320767;28;20045;-50
2022/11/18 15:27:09;;;;;;;4.57;1.50;;;;;;;12.41;89.20;99386.84;8322709;28;20049;-50
2022/11/18 15:31:09;;;;;;;4.60;1.95;;;;;;;12.37;89.43;99390.91;8322467;28;20064;-49
2022/11/18 15:35:12;;;;;;;8.95;1.85;;;;;;;12.27;90.03;99390.31;8332839;28;20064;-52
2022/11/18 15:39:13;;;;;;;7.35;1.45;;;;;;;12.22;90.57;99387.28;8324398;28;20511;-50
2022/11/18 15:43:13;;;;;;;8.23;1.75;;;;;;;12.10;91.57;99394.16;8334947;28;20455;-49
2022/11/18 15:47:14;;;;;;;5.68;1.48;;;;;;;12.02;92.27;99397.75;8329006;28;20117;-49
2022/11/18 15:51:15;;;;;;;6.90;2.50;;;;;;;11.97;93.90;99404.69;8322760;28;20177;-49
2022/11/18 15:55:16;;;;;;;5.45;2.10;;;;;;;11.89;93.90;99403.72;8294869;28;20038;-50
2022/11/18 15:59:16;;;;;;;8.55;2.33;;;;;;;11.85;94.56;99409.66;8310678;28;20511;-49
2022/11/18 16:03:17;;;;;;;4.78;1.80;;;;;;;11.81;95.06;99411.88;8306942;28;20034;-51
2022/11/18 16:07:18;;;;;;;6.40;1.73;;;;;;;11.85;94.92;99415.94;8297614;28;20523;-49
2022/11/18 16:12:51;;;;;;;4.60;1.63;;;;;;;11.86;96.01;99416.75;8297845;28;20064;-49
2022/11/18 16:15:42;;;;;;;6.25;1.42;;;;;;;11.97;93.47;99420.94;8290475;28;20091;-50
2022/11/18 16:19:43;;;;;;;5.95;1.77;;;;;;;11.93;94.20;99425.03;8318769;28;20044;-49
2022/11/18 16:23:44;;;;;;;3.42;1.70;;;;;;;11.84;95.37;99422.34;8313478;28;20046;-50
2022/11/18 16:27:45;;;;;;;4.10;1.88;;;;;;;11.71;96.74;99426.63;8304788;28;20037;-49
2022/11/18 16:32:11;;;;;;;5.63;2.03;;;;;;;11.63;97.87;99422.13;8308540;28;20037;-53
2022/11/18 16:36:12;;;;;;;7.50;2.45;;;;;;;11.51;98.61;99425.31;8319990;28;20124;-52
2022/11/18 16:40:12;;;;;;;6.40;1.83;;;;;;;11.55;97.31;99422.09;8323951;28;20047;-49
2022/11/18 16:44:14;;;;;;;6.10;3.28;;;;;;;11.59;96.96;99430.72;8304645;28;20577;-49
2022/11/18 16:48:15;;;;;;;10.80;3.85;;;;;;;11.62;95.83;99438.53;8302778;28;20538;-49
2022/11/18 16:52:16;;;;;;;10.45;4.05;;;;;;;11.51;95.38;99437.00;8296327;28;20435;-52
2022/11/18 16:56:16;;;;;;;10.32;4.60;;;;;;;11.42;96.04;99442.59;8307308;28;20048;-49
2022/11/18 17:00:17;;;;;;;8.88;4.70;;;;;;;11.44;95.08;99449.50;8315559;28;20037;-49
2022/11/18 17:04:19;;;;;;;7.47;3.38;;;;;;;11.46;95.16;99443.91;8300363;28;20056;-49
2022/11/18 17:08:20;;;;;;;7.03;3.25;;;;;;;11.44;94.57;99452.22;8319495;28;20041;-50
2022/11/18 17:12:21;;;;;;;8.82;3.58;;;;;;;11.36;96.78;99454.94;8317267;28;20048;-49
2022/11/18 17:16:23;;;;;;;9.45;3.67;;;;;;;11.25;97.25;99452.59;8302747;28;20104;-49
2022/11/18 17:20:23;;;;;;;7.57;3.75;;;;;;;11.38;95.50;99461.00;8302014;28;20116;-48
2022/11/18 17:24:24;;;;;;;7.35;3.80;;;;;;;11.44;94.98;99456.81;8321413;28;20029;-50
2022/11/18 17:28:25;;;;;;;5.57;2.75;;;;;;;11.53;94.24;99458.47;8316583;28;20042;-51
2022/11/18 17:32:26;;;;;;;4.70;3.60;;;;;;;11.61;93.33;99459.28;8294348;28;20041;-50
2022/11/18 17:36:27;;;;;;;5.78;2.38;;;;;;;11.67;92.79;99468.59;8348550;28;20075;-51
2022/11/18 17:40:28;;;;;;;5.07;2.60;;;;;;;11.62;94.82;99477.25;8311418;28;20038;-49
2022/11/18 17:44:28;;;;;;;7.20;2.40;;;;;;;11.52;97.03;99476.56;8284476;28;20042;-49
2022/11/18 17:48:29;;;;;;;7.53;3.00;;;;;;;11.40;97.70;99480.66;8309491;28;20048;-49
2022/11/18 17:52:30;;;;;;;5.97;3.45;;;;;;;11.33;99.36;99482.34;8321408;28;20068;-49
2022/11/18 17:56:31;;;;;;;5.53;2.60;;;;;;;11.24;99.31;99482.50;8316913;28;20122;-51
2022/11/18 18:00:32;;;;;;;12.43;5.15;;;;;;;11.16;100.00;99491.47;8312177;28;20041;-50
2022/11/18 18:04:32;;;;;;;7.40;3.22;;;;;;;11.13;100.00;99486.41;8312968;28;20041;-52
2022/11/18 18:08:34;;;;;;;7.20;2.42;;;;;;;11.11;100.00;99496.56;8317379;28;20049;-50
2022/11/18 18:16:55;;;;;;;9.18;3.47;;;;;;;11.04;100.00;99506.34;8282736;28;20122;-52
2022/11/18 18:21:00;;;;;;;8.48;3.90;;;;;;;11.02;100.00;99497.59;8282766;28;20522;-50
2022/11/18 18:25:01;;;;;;;7.32;3.60;;;;;;;11.07;100.00;99503.31;8278251;28;20132;-50
2022/11/18 18:29:03;;;;;;;6.28;3.58;;;;;;;11.04;100.00;99509.06;8264514;28;20053;-48
2022/11/18 18:33:04;;;;;;;5.20;3.03;;;;;;;10.99;100.00;99506.03;8257164;28;20679;-53
2022/11/18 18:37:05;;;;;;;6.93;3.17;;;;;;;10.98;100.00;99509.72;8274942;28;20050;-49
2022/11/18 18:41:08;;;;;;;5.05;3.08;;;;;;;10.98;100.00;99514.31;8283330;28;20077;-50
2022/11/18 18:46:41;;;;;;;9.10;5.63;;;;;;;10.86;100.00;99516.47;8252604;28;21001;-50
2022/11/18 18:49:30;;;;;;;7.32;4.20;;;;;;;10.73;100.00;99521.53;8255388;28;20049;-49
2022/11/18 18:53:32;;;;;;;7.20;4.32;;;;;;;10.73;100.00;99521.53;8270341;28;20495;-50
2022/11/18 18:57:32;;;;;;;5.75;3.88;;;;;;;10.72;100.00;99525.25;8290301;28;20044;-50
2022/11/18 19:01:33;;;;;;;6.85;3.65;;;;;;;10.63;100.00;99530.78;8305743;28;20516;-53
2022/11/18 19:05:34;;;;;;;8.00;4.80;;;;;;;10.57;100.00;99537.72;8287303;28;20038;-51
2022/11/18 19:09:35;;;;;;;10.25;6.22;;;;;;;10.62;100.00;99539.91;8286925;28;20041;-53
2022/11/18 19:13:36;;;;;;;13.20;5.72;;;;;;;10.61;100.00;99538.22;8287769;28;20585;-50
2022/11/18 19:17:37;;;;;;;8.30;4.35;;;;;;;10.62;100.00;99534.50;8283694;28;20419;-49
2022/11/18 19:21:37;;;;;;;10.40;5.47;;;;;;;10.57;100.00;99537.72;8286804;28;20042;-50
2022/11/18 19:25:38;;;;;;;13.48;7.47;;;;;;;10.56;100.00;99538.72;8280878;28;20113;-54
2022/11/18 19:29:38;;;;;;;12.85;5.93;;;;;;;10.53;100.00;99546.31;8312730;28;20128;-51
2022/11/18 19:33:39;;;;;;;11.05;5.03;;;;;;;10.56;100.00;99545.97;8305782;28;20079;-49
2022/11/18 19:37:40;;;;;;;10.63;3.85;;;;;;;10.55;100.00;99542.41;8287623;28;20096;-49